Time;durP1;ratioP1;P1;durP2;ratioP2;P2;SDS_P1;SDS_P2;PMS_P1;PMS_P2;Temp;Humidity;BMP_temperature;BMP_pressure;BME280_temperature;BME280_humidity;BME280_pressure;Samples;Min_cycle;Max_cycle;Signal;HPM_P1;HPM_P2
2022/05/10 00:00:52;;;;;;;1.38;0.93;;;;;;;21.30;46.02;101996.13;5077821;28;20025;-47
2022/05/10 00:03:18;;;;;;;0.98;0.80;;;;;;;21.27;45.85;101988.34;5062467;28;20762;-47
2022/05/10 00:05:43;;;;;;;1.52;1.02;;;;;;;21.30;45.97;101993.44;5065036;28;20029;-46
2022/05/10 00:08:12;;;;;;;1.17;0.93;;;;;;;21.30;45.84;101993.44;5064940;28;20035;-46
2022/05/10 00:10:39;;;;;;;1.35;0.70;;;;;;;21.29;45.98;101983.63;5063525;28;20028;-45
2022/05/10 00:13:05;;;;;;;1.52;0.75;;;;;;;21.28;45.77;101974.66;5063351;28;20060;-45
2022/05/10 00:15:30;;;;;;;1.70;1.00;;;;;;;21.25;45.92;101977.69;5073508;28;20020;-45
2022/05/10 00:17:55;;;;;;;1.05;0.80;;;;;;;21.28;45.73;101971.09;5083014;28;20111;-50
2022/05/10 00:20:23;;;;;;;1.00;0.80;;;;;;;21.27;45.77;101972.94;5083664;28;20032;-47
2022/05/10 00:22:48;;;;;;;1.40;0.80;;;;;;;21.25;45.94;101969.56;5083881;28;20046;-48
2022/05/10 00:25:21;;;;;;;1.75;0.90;;;;;;;21.27;45.88;101966.69;5084454;28;20501;-44
2022/05/10 00:27:46;;;;;;;1.23;0.80;;;;;;;21.24;45.93;101962.47;5084636;28;20128;-48
2022/05/10 00:30:12;;;;;;;1.58;0.90;;;;;;;21.26;45.71;101960.44;5083642;28;20028;-46
2022/05/10 00:32:38;;;;;;;1.65;0.98;;;;;;;21.26;45.96;101946.91;5084115;28;20491;-47
2022/05/10 00:35:06;;;;;;;1.08;0.93;;;;;;;21.26;45.75;101957.72;5083188;28;20013;-46
2022/05/10 00:37:31;;;;;;;1.15;0.93;;;;;;;21.25;45.98;101947.09;5089972;28;20124;-49
2022/05/10 00:39:56;;;;;;;1.40;1.30;;;;;;;21.23;45.91;101948.06;5104253;28;20020;-45
2022/05/10 00:42:27;;;;;;;0.88;0.70;;;;;;;21.24;46.08;101946.25;5104332;28;20016;-50
2022/05/10 00:45:02;;;;;;;1.55;1.17;;;;;;;21.23;45.93;101939.09;5088075;28;20056;-49
2022/05/10 00:47:41;;;;;;;1.08;0.80;;;;;;;21.25;45.97;101950.63;5083860;28;20684;-47
2022/05/10 00:50:14;;;;;;;;;;;;;;;21.18;45.95;101941.44;5083434;28;20735;-50
2022/05/10 00:53:00;;;;;;;1.85;1.10;;;;;;;21.20;45.93;101943.00;5066084;28;19943;-51
2022/05/10 00:55:40;;;;;;;1.55;1.08;;;;;;;21.18;45.65;101939.59;5083934;28;20024;-45
2022/05/10 00:58:20;;;;;;;1.27;0.88;;;;;;;21.19;45.67;101938.56;5082847;28;20020;-49
2022/05/10 01:00:45;;;;;;;2.22;0.90;;;;;;;21.18;45.69;101938.75;5081961;28;20020;-48
2022/05/10 01:03:23;;;;;;;1.73;1.10;;;;;;;21.20;45.78;101934.03;5082474;28;20044;-48
2022/05/10 01:06:16;;;;;;;1.08;0.98;;;;;;;21.19;45.89;101926.91;5083032;28;20016;-49
2022/05/10 01:08:57;;;;;;;1.05;0.77;;;;;;;21.18;45.72;101931.47;5072353;28;20036;-48
2022/05/10 01:11:33;;;;;;;0.95;0.80;;;;;;;21.18;45.87;101925.22;5083418;28;20581;-48
2022/05/10 01:14:04;;;;;;;1.10;1.00;;;;;;;21.18;45.90;101925.22;5083689;28;20020;-45
2022/05/10 01:16:29;;;;;;;1.20;1.00;;;;;;;21.17;45.70;101918.97;5082220;28;20028;-47
2022/05/10 01:18:54;;;;;;;1.55;0.90;;;;;;;21.17;45.51;101916.25;5083401;28;20044;-49
2022/05/10 01:21:32;;;;;;;1.38;0.90;;;;;;;21.18;45.64;101917.94;5082487;28;20024;-50
2022/05/10 01:24:21;;;;;;;1.92;1.10;;;;;;;21.18;45.52;101923.38;5083807;28;20052;-49
2022/05/10 01:27:08;;;;;;;1.13;0.90;;;;;;;21.18;45.51;101915.25;5083783;28;20024;-45
2022/05/10 01:30:05;;;;;;;1.10;1.00;;;;;;;21.16;45.51;101914.56;5083124;28;20028;-44
2022/05/10 01:35:28;;;;;;;1.67;1.20;;;;;;;21.15;45.42;101907.47;5082700;28;20055;-49
2022/05/10 01:37:59;;;;;;;1.30;1.00;;;;;;;21.14;45.87;101896.78;5093848;28;20028;-47
2022/05/10 01:40:31;;;;;;;0.80;0.80;;;;;;;21.15;45.77;101906.59;5102341;28;20030;-49
2022/05/10 01:43:05;;;;;;;1.45;1.30;;;;;;;21.15;45.53;101906.59;5103473;28;20033;-48
2022/05/10 01:45:38;;;;;;;1.98;0.90;;;;;;;21.13;45.49;101904.06;5081246;28;20095;-47
2022/05/10 01:48:04;;;;;;;1.15;1.05;;;;;;;21.10;45.75;101895.41;5083051;28;20024;-50
2022/05/10 01:50:35;;;;;;;1.17;1.00;;;;;;;21.14;45.67;101891.38;5083624;28;20084;-45
2022/05/10 01:53:04;;;;;;;2.25;0.93;;;;;;;21.13;45.68;101890.53;5083463;28;20546;-50
2022/05/10 01:55:54;;;;;;;1.10;1.00;;;;;;;21.13;45.44;101887.00;5083401;28;20054;-47
2022/05/10 01:58:23;;;;;;;1.10;0.80;;;;;;;21.12;45.41;101886.16;5083193;28;20136;-46
2022/05/10 02:01:03;;;;;;;2.00;1.63;;;;;;;21.13;45.62;101881.59;5082598;28;20338;-49
2022/05/10 02:03:39;;;;;;;1.67;1.02;;;;;;;21.11;45.48;101873.66;5081896;28;20016;-47
2022/05/10 02:06:13;;;;;;;1.02;0.80;;;;;;;21.12;45.34;101872.63;5082099;28;20385;-47
2022/05/10 02:08:44;;;;;;;1.73;1.27;;;;;;;21.11;45.66;101873.66;5079327;28;20032;-44
2022/05/10 02:11:12;;;;;;;1.60;1.23;;;;;;;21.07;45.49;101863.28;5062957;28;20028;-47
2022/05/10 02:13:41;;;;;;;1.50;1.10;;;;;;;21.10;45.52;101868.38;5061831;28;20025;-47
2022/05/10 02:16:16;;;;;;;;;;;;;;;21.05;45.70;101862.59;5061353;28;20516;-46
2022/05/10 02:18:47;;;;;;;1.08;0.98;;;;;;;21.05;45.51;101858.03;5062869;28;19909;-47
2022/05/10 02:21:23;;;;;;;1.17;1.08;;;;;;;21.06;45.57;101862.44;5061775;28;20192;-50
2022/05/10 02:24:03;;;;;;;1.60;1.48;;;;;;;21.06;45.63;101858.88;5062049;28;20021;-47
2022/05/10 02:26:35;;;;;;;1.17;0.80;;;;;;;21.06;45.71;101856.19;5065039;28;20024;-48
2022/05/10 02:29:13;;;;;;;1.60;1.20;;;;;;;21.06;45.10;101862.44;5065453;28;20059;-47
2022/05/10 02:33:06;;;;;;;1.48;0.77;;;;;;;21.05;45.32;101854.50;5064944;28;20059;-51
2022/05/10 02:34:35;;;;;;;0.98;0.90;;;;;;;21.03;45.60;101845.72;5065202;28;20063;-45
2022/05/10 02:37:00;;;;;;;1.27;1.17;;;;;;;21.00;45.55;101840.63;5072870;28;20015;-47
2022/05/10 02:39:26;;;;;;;1.58;1.17;;;;;;;21.04;45.78;101834.72;5084127;28;20677;-49
2022/05/10 02:41:52;;;;;;;1.63;1.10;;;;;;;21.03;45.40;101840.31;5066248;28;20032;-50
2022/05/10 02:44:17;;;;;;;1.42;1.08;;;;;;;21.03;45.79;101832.19;5075303;28;20461;-48
2022/05/10 02:46:43;;;;;;;1.10;1.00;;;;;;;21.04;45.47;101828.47;5084286;28;20121;-46
2022/05/10 02:49:08;;;;;;;1.25;1.00;;;;;;;21.03;45.29;101830.34;5084948;28;20021;-47
2022/05/10 02:51:33;;;;;;;1.20;1.05;;;;;;;21.03;45.50;101833.03;5086458;28;20120;-50
2022/05/10 02:53:58;;;;;;;1.42;1.20;;;;;;;21.02;45.80;101835.88;5086327;28;20021;-50
2022/05/10 02:56:27;;;;;;;1.55;1.17;;;;;;;20.97;45.79;101826.38;5086161;28;20032;-46
2022/05/10 02:59:00;;;;;;;2.33;1.83;;;;;;;21.02;45.43;101833.16;5085248;28;20099;-50
2022/05/10 03:01:41;;;;;;;1.67;1.10;;;;;;;21.03;45.33;101837.59;5084272;28;20032;-49
2022/05/10 03:04:08;;;;;;;1.40;1.13;;;;;;;21.00;45.50;101827.09;5084664;28;20023;-52
2022/05/10 03:06:36;;;;;;;1.40;1.00;;;;;;;21.01;45.37;101817.97;5086104;28;20024;-47
2022/05/10 03:09:02;;;;;;;1.87;1.33;;;;;;;20.99;45.70;101818.13;5085869;28;20028;-45
2022/05/10 03:11:27;;;;;;;1.67;1.10;;;;;;;21.01;45.60;101820.66;5085869;28;20304;-50
2022/05/10 03:13:53;;;;;;;1.60;1.25;;;;;;;21.00;45.67;101816.28;5085990;28;20028;-48
2022/05/10 03:16:18;;;;;;;1.38;1.20;;;;;;;20.97;45.24;101815.56;5084973;28;20028;-49
2022/05/10 03:18:45;;;;;;;1.30;1.20;;;;;;;20.96;45.31;101808.47;5085720;28;20028;-45
2022/05/10 03:21:10;;;;;;;2.00;1.25;;;;;;;20.98;45.61;101808.31;5085884;28;20032;-45
2022/05/10 03:23:36;;;;;;;1.30;1.20;;;;;;;20.94;45.45;101802.41;5085969;28;20040;-46
2022/05/10 03:26:01;;;;;;;1.70;1.08;;;;;;;20.99;45.29;101803.78;5085578;28;20055;-48
2022/05/10 03:28:27;;;;;;;1.42;1.15;;;;;;;20.98;45.62;101805.59;5084564;28;20036;-48
2022/05/10 03:30:52;;;;;;;1.15;1.00;;;;;;;20.97;45.46;101798.50;5085098;28;20035;-45
2022/05/10 03:33:18;;;;;;;1.45;1.23;;;;;;;20.96;45.25;101796.81;5085405;28;20092;-47
2022/05/10 03:35:43;;;;;;;1.70;1.40;;;;;;;20.96;45.58;101797.66;5085811;28;20096;-45
2022/05/10 03:38:08;;;;;;;1.48;1.10;;;;;;;20.95;45.35;101795.97;5091704;28;20037;-46
2022/05/10 03:40:33;;;;;;;2.03;1.38;;;;;;;20.96;45.57;101794.97;5065441;28;20100;-47
2022/05/10 03:43:00;;;;;;;1.65;1.30;;;;;;;20.96;45.46;101791.41;5065252;28;20016;-46
2022/05/10 03:45:25;;;;;;;2.13;1.45;;;;;;;20.96;45.29;101791.41;5082615;28;20048;-51
2022/05/10 03:47:52;;;;;;;1.45;1.23;;;;;;;20.95;45.51;101782.47;5085305;28;20035;-47
2022/05/10 03:50:19;;;;;;;1.45;1.20;;;;;;;20.95;45.20;101781.63;5085283;28;20044;-45
2022/05/10 03:52:45;;;;;;;1.83;1.40;;;;;;;20.95;45.06;101787.03;5085485;28;20021;-44
2022/05/10 03:55:13;;;;;;;2.15;1.73;;;;;;;20.94;45.32;101777.19;5085008;28;20021;-47
2022/05/10 03:57:39;;;;;;;1.98;1.55;;;;;;;20.93;45.12;101781.75;5085284;28;20033;-48
2022/05/10 04:00:14;;;;;;;1.55;1.40;;;;;;;20.94;45.39;101775.38;5084522;28;20035;-45
2022/05/10 04:02:40;;;;;;;1.20;1.10;;;;;;;20.93;45.34;101776.34;5084954;28;20131;-47
2022/05/10 04:05:06;;;;;;;1.50;1.30;;;;;;;20.93;45.29;101778.22;5085049;28;20641;-46
2022/05/10 04:07:31;;;;;;;2.38;1.38;;;;;;;20.92;45.02;101776.53;5078391;28;20106;-48
2022/05/10 04:09:57;;;;;;;2.00;1.25;;;;;;;20.93;45.34;101778.22;5064918;28;20645;-48
2022/05/10 04:12:22;;;;;;;2.08;1.23;;;;;;;20.93;45.19;101779.06;5064567;28;20124;-45
2022/05/10 04:14:47;;;;;;;1.50;1.23;;;;;;;20.92;44.92;101771.13;5064195;28;20087;-48
2022/05/10 04:17:13;;;;;;;1.30;1.20;;;;;;;20.93;45.26;101780.91;5064677;28;20029;-47
2022/05/10 04:19:38;;;;;;;1.73;1.58;;;;;;;20.93;44.89;101778.22;5064566;28;20028;-46
2022/05/10 04:22:04;;;;;;;1.73;1.48;;;;;;;20.92;44.96;101776.53;5064651;28;20060;-47
2022/05/10 04:24:29;;;;;;;2.15;1.58;;;;;;;20.92;44.88;101771.97;5074893;28;20020;-47
2022/05/10 04:26:55;;;;;;;1.80;1.55;;;;;;;20.92;44.96;101774.66;5083091;28;20198;-48
2022/05/10 04:29:20;;;;;;;1.58;1.33;;;;;;;20.92;44.79;101771.13;5083832;28;20036;-48
2022/05/10 04:31:45;;;;;;;2.03;1.42;;;;;;;20.83;45.25;101763.97;5071523;28;20028;-48
2022/05/10 04:34:10;;;;;;;1.38;1.27;;;;;;;20.91;44.80;101774.84;5083654;28;20056;-47
2022/05/10 04:36:35;;;;;;;1.85;1.40;;;;;;;20.92;44.83;101771.97;5083880;28;20507;-45
2022/05/10 04:39:01;;;;;;;2.10;1.67;;;;;;;20.91;44.72;101772.97;5081374;28;20068;-48
2022/05/10 04:41:32;;;;;;;1.58;1.40;;;;;;;20.92;44.71;101779.22;5082331;28;20048;-45
2022/05/10 04:44:03;;;;;;;1.85;1.50;;;;;;;20.91;44.97;101775.69;5079599;28;20017;-49
2022/05/10 04:46:30;;;;;;;1.67;1.30;;;;;;;20.92;44.84;101773.81;5063097;28;20140;-47
2022/05/10 04:48:56;;;;;;;1.70;1.30;;;;;;;20.92;45.02;101774.66;5063299;28;20044;-46
2022/05/10 04:51:21;;;;;;;1.85;1.40;;;;;;;20.88;44.73;101767.88;5064228;28;20021;-47
2022/05/10 04:53:47;;;;;;;2.05;1.40;;;;;;;20.92;44.77;101773.81;5064313;28;20021;-50
2022/05/10 04:56:12;;;;;;;1.52;1.42;;;;;;;20.89;44.73;101766.88;5081759;28;20016;-47
2022/05/10 04:58:37;;;;;;;2.13;1.55;;;;;;;20.92;44.72;101779.22;5083469;28;20046;-50
2022/05/10 05:01:06;;;;;;;1.75;1.40;;;;;;;20.91;44.80;101766.72;5082474;28;20028;-47
2022/05/10 05:03:31;;;;;;;1.60;1.50;;;;;;;20.91;44.92;101769.44;5082573;28;20052;-48
2022/05/10 05:05:57;;;;;;;1.95;1.52;;;;;;;20.89;45.04;101768.72;5071646;28;20020;-46
2022/05/10 05:08:22;;;;;;;1.77;1.40;;;;;;;20.90;44.95;101760.47;5076289;28;20381;-47
2022/05/10 05:10:47;;;;;;;2.05;1.15;;;;;;;20.90;45.35;101768.59;5082862;28;20083;-45
2022/05/10 05:13:16;;;;;;;2.10;1.55;;;;;;;20.87;45.22;101754.53;5083073;28;20591;-48
2022/05/10 05:15:42;;;;;;;;;;;;;;;20.85;45.65;101768.19;5082826;28;20020;-46
2022/05/10 05:18:08;;;;;;;2.05;1.42;;;;;;;20.86;45.12;101760.97;5082914;28;19923;-47
2022/05/10 05:20:34;;;;;;;1.75;1.50;;;;;;;20.82;45.40;101755.03;5083187;28;20263;-45
2022/05/10 05:22:59;;;;;;;1.98;1.50;;;;;;;20.87;45.16;101757.25;5083163;28;20175;-47
2022/05/10 05:25:24;;;;;;;2.00;1.60;;;;;;;20.87;45.17;101766.19;5082701;28;20025;-47
2022/05/10 05:27:49;;;;;;;1.58;1.20;;;;;;;20.88;45.52;101767.03;5081812;28;20029;-45
2022/05/10 05:30:16;;;;;;;1.88;1.48;;;;;;;20.87;45.57;101760.78;5078550;28;20072;-48
2022/05/10 05:32:41;;;;;;;1.92;1.38;;;;;;;20.85;45.19;101751.13;5078626;28;20032;-46
2022/05/10 05:35:07;;;;;;;1.48;1.33;;;;;;;20.87;45.29;101766.19;5077947;28;20100;-46
2022/05/10 05:37:35;;;;;;;2.38;1.80;;;;;;;20.88;45.34;101759.78;5083021;28;20028;-45
2022/05/10 05:40:09;;;;;;;2.03;1.73;;;;;;;20.89;45.63;101766.88;5082892;28;20066;-46
2022/05/10 05:42:35;;;;;;;2.20;1.40;;;;;;;20.88;45.43;101765.19;5080058;28;20029;-49
2022/05/10 05:45:02;;;;;;;2.28;1.70;;;;;;;20.89;45.29;101760.63;5081904;28;20036;-45
2022/05/10 05:47:27;;;;;;;2.72;1.73;;;;;;;20.89;45.61;101763.31;5082613;28;20029;-47
2022/05/10 05:49:53;;;;;;;2.08;1.85;;;;;;;20.89;45.63;101757.91;5082521;28;20104;-49
2022/05/10 05:52:21;;;;;;;1.73;1.63;;;;;;;20.88;45.37;101759.78;5082598;28;20038;-47
2022/05/10 05:54:47;;;;;;;2.17;1.88;;;;;;;20.88;45.44;101758.94;5083043;28;20023;-46
2022/05/10 05:57:12;;;;;;;2.63;1.75;;;;;;;20.87;45.48;101755.38;5082541;28;20052;-48
2022/05/10 05:59:37;;;;;;;2.40;1.48;;;;;;;20.87;45.58;101751.84;5082135;28;20020;-47
2022/05/10 06:02:03;;;;;;;2.33;1.55;;;;;;;20.88;45.31;101757.06;5085722;28;20029;-50
2022/05/10 06:04:28;;;;;;;1.83;1.60;;;;;;;20.88;45.50;101756.22;5086637;28;20103;-51
2022/05/10 06:06:53;;;;;;;1.75;1.60;;;;;;;20.87;45.71;101752.69;5086402;28;20025;-50
2022/05/10 06:09:25;;;;;;;1.65;1.55;;;;;;;20.87;45.55;101751.84;5086532;28;20452;-46
2022/05/10 06:11:50;;;;;;;1.92;1.73;;;;;;;20.87;45.58;101752.69;5086223;28;20024;-52
2022/05/10 06:14:15;;;;;;;2.17;1.60;;;;;;;20.86;45.45;101744.75;5086571;28;20027;-52
2022/05/10 06:16:41;;;;;;;1.73;1.50;;;;;;;20.87;45.93;101744.56;5085842;28;20076;-47
2022/05/10 06:19:11;;;;;;;1.65;1.52;;;;;;;20.87;45.86;101744.56;5084535;28;20069;-48
2022/05/10 06:21:36;;;;;;;2.10;1.60;;;;;;;20.87;45.84;101746.44;5086387;28;20032;-51
2022/05/10 06:24:02;;;;;;;2.00;1.67;;;;;;;20.87;45.75;101735.63;5085895;28;20032;-52
2022/05/10 06:26:27;;;;;;;1.60;1.50;;;;;;;20.87;45.54;101733.75;5086148;28;20024;-50
2022/05/10 06:28:53;;;;;;;2.10;1.80;;;;;;;20.88;45.53;101740.84;5086537;28;20051;-52
2022/05/10 06:31:18;;;;;;;2.35;2.00;;;;;;;20.87;45.57;101739.16;5085295;28;20024;-49
2022/05/10 06:33:43;;;;;;;2.90;2.17;;;;;;;20.88;45.62;101731.91;5085926;28;20017;-52
2022/05/10 06:36:08;;;;;;;2.00;1.80;;;;;;;20.88;45.10;101729.19;5086150;28;20031;-48
2022/05/10 06:38:34;;;;;;;3.40;2.00;;;;;;;20.88;45.64;101726.50;5070702;28;20474;-48
2022/05/10 06:41:01;;;;;;;2.35;1.80;;;;;;;20.89;45.57;101736.28;5063322;28;20032;-47
2022/05/10 06:43:28;;;;;;;3.55;2.40;;;;;;;20.88;45.76;101715.69;5073471;28;20066;-52
2022/05/10 06:45:57;;;;;;;2.50;2.20;;;;;;;20.89;45.94;101720.91;5072894;28;20037;-49
2022/05/10 06:48:23;;;;;;;2.83;2.47;;;;;;;20.87;45.66;101722.09;5073993;28;20032;-51
2022/05/10 06:50:48;;;;;;;3.88;2.35;;;;;;;20.89;45.54;101720.91;5081523;28;20036;-51
2022/05/10 06:53:13;;;;;;;3.38;1.88;;;;;;;20.89;45.68;101718.22;5077978;28;20028;-47
2022/05/10 06:55:39;;;;;;;2.58;2.08;;;;;;;20.91;45.63;101718.06;5073087;28;20032;-52
2022/05/10 06:58:05;;;;;;;3.03;2.10;;;;;;;20.91;45.62;101715.38;5075600;28;20073;-52
2022/05/10 07:00:36;;;;;;;2.40;2.00;;;;;;;20.89;45.75;101706.56;5079959;28;20037;-50
2022/05/10 07:03:06;;;;;;;2.15;1.95;;;;;;;20.92;45.55;101708.94;5079604;28;20101;-52
2022/05/10 07:05:32;;;;;;;1.67;1.58;;;;;;;20.92;45.99;101711.66;5079988;28;20032;-52
2022/05/10 07:07:57;;;;;;;1.73;1.60;;;;;;;20.91;45.62;101701.84;5077184;28;20024;-48
2022/05/10 07:10:22;;;;;;;1.80;1.50;;;;;;;20.91;45.50;101702.69;5080195;28;20035;-51
2022/05/10 07:12:47;;;;;;;2.38;1.92;;;;;;;20.91;45.74;101701.84;5074550;28;20028;-51
2022/05/10 07:15:16;;;;;;;2.38;1.63;;;;;;;20.92;45.42;101692.72;5081454;28;20016;-51
2022/05/10 07:17:41;;;;;;;1.55;1.42;;;;;;;20.92;45.80;101695.44;5080086;28;20032;-50
2022/05/10 07:20:09;;;;;;;1.65;1.23;;;;;;;20.92;45.41;101690.88;5067865;28;20041;-54
2022/05/10 07:22:34;;;;;;;1.35;1.20;;;;;;;20.92;45.73;101682.75;5079257;28;20032;-53
2022/05/10 07:25:00;;;;;;;1.65;1.10;;;;;;;20.92;45.72;101688.16;5078137;28;20032;-54
2022/05/10 07:27:25;;;;;;;1.88;1.35;;;;;;;20.93;45.58;101689.84;5069831;28;20088;-46
2022/05/10 07:29:50;;;;;;;1.90;1.60;;;;;;;20.93;45.86;101689.00;5081791;28;20099;-52
2022/05/10 07:32:15;;;;;;;2.17;1.73;;;;;;;20.94;46.05;101686.16;5084885;28;20051;-52
2022/05/10 07:34:42;;;;;;;3.08;2.17;;;;;;;20.94;45.77;101685.28;5084431;28;20084;-52
2022/05/10 07:37:07;;;;;;;2.20;2.00;;;;;;;20.94;46.02;101677.19;5082089;28;20041;-51
2022/05/10 07:39:33;;;;;;;2.85;2.22;;;;;;;20.95;46.15;101676.19;5080507;28;20097;-52
2022/05/10 07:42:01;;;;;;;3.03;2.20;;;;;;;20.95;45.84;101673.47;5083451;28;20111;-53
2022/05/10 07:44:26;;;;;;;3.13;2.63;;;;;;;20.94;46.40;101671.75;5083966;28;20038;-50
2022/05/10 07:46:51;;;;;;;2.63;2.13;;;;;;;20.93;46.27;101668.22;5083696;28;20143;-52
2022/05/10 07:49:16;;;;;;;3.25;1.95;;;;;;;20.94;46.03;101675.34;5084813;28;20028;-49
2022/05/10 07:51:42;;;;;;;3.03;2.03;;;;;;;20.94;46.60;101674.47;5085077;28;20028;-50
2022/05/10 07:54:07;;;;;;;2.85;2.10;;;;;;;20.96;46.35;101667.06;5084721;28;20052;-46
2022/05/10 07:56:32;;;;;;;2.60;2.03;;;;;;;20.95;46.05;101659.97;5066246;28;20072;-51
2022/05/10 07:58:58;;;;;;;2.03;1.67;;;;;;;20.95;45.97;101662.66;5081674;28;20096;-46
2022/05/10 08:01:24;;;;;;;2.45;1.80;;;;;;;20.96;46.48;101665.19;5081868;28;20029;-45
2022/05/10 08:03:49;;;;;;;2.30;1.90;;;;;;;20.96;46.23;101667.06;5084658;28;20084;-48
2022/05/10 08:06:16;;;;;;;3.33;1.85;;;;;;;20.97;46.10;101666.03;5084366;28;20029;-48
2022/05/10 08:08:41;;;;;;;2.13;1.50;;;;;;;20.95;46.23;101660.81;5084712;28;20024;-46
2022/05/10 08:11:08;;;;;;;2.10;1.65;;;;;;;20.96;46.32;101657.09;5084623;28;20024;-48
2022/05/10 08:13:34;;;;;;;2.20;2.00;;;;;;;20.97;46.24;101658.78;5084627;28;20036;-49
2022/05/10 08:16:00;;;;;;;2.40;2.00;;;;;;;20.97;46.41;101661.47;5083982;28;20078;-50
2022/05/10 08:18:26;;;;;;;2.72;1.70;;;;;;;20.98;46.22;101654.22;5084449;28;20055;-46
2022/05/10 08:20:53;;;;;;;2.53;1.90;;;;;;;21.00;46.42;101659.47;5084476;28;20105;-46
2022/05/10 08:23:21;;;;;;;2.25;1.60;;;;;;;21.01;46.54;101658.44;5083857;28;20082;-51
2022/05/10 08:25:54;;;;;;;1.77;1.58;;;;;;;21.01;46.62;101653.03;5084456;28;20160;-48
2022/05/10 08:28:20;;;;;;;2.05;1.75;;;;;;;21.00;46.26;101651.34;5071051;28;20032;-48
2022/05/10 08:30:48;;;;;;;1.75;1.65;;;;;;;21.01;46.38;101647.63;5062980;28;20068;-48
2022/05/10 08:33:34;;;;;;;2.65;1.80;;;;;;;21.02;46.32;101641.22;5069836;28;20020;-52
2022/05/10 08:36:00;;;;;;;1.52;1.40;;;;;;;21.02;46.36;101643.91;5074010;28;20033;-49
2022/05/10 08:38:28;;;;;;;1.83;1.50;;;;;;;21.02;45.98;101649.31;5073412;28;20029;-50
2022/05/10 08:41:04;;;;;;;2.22;1.23;;;;;;;21.03;46.04;101641.06;5076421;28;20029;-47
2022/05/10 08:43:37;;;;;;;2.58;1.65;;;;;;;21.05;46.20;101638.19;5079182;28;20028;-50
2022/05/10 08:46:04;;;;;;;1.67;1.40;;;;;;;21.05;45.98;101640.91;5071313;28;20047;-51
2022/05/10 08:48:31;;;;;;;2.08;1.65;;;;;;;21.05;45.84;101640.91;5078356;28;20057;-51
2022/05/10 08:50:57;;;;;;;1.73;1.60;;;;;;;21.04;45.92;101645.47;5070441;28;20043;-50
2022/05/10 08:53:22;;;;;;;2.28;1.75;;;;;;;21.06;45.88;101637.16;5071565;28;20056;-53
2022/05/10 08:55:52;;;;;;;1.55;1.45;;;;;;;21.06;46.41;101629.06;5072607;28;20059;-51
2022/05/10 08:58:26;;;;;;;1.60;1.35;;;;;;;21.05;45.93;101625.50;5072944;28;20068;-50
2022/05/10 09:00:52;;;;;;;1.65;1.30;;;;;;;21.06;46.04;101620.94;5077468;28;20054;-47
2022/05/10 09:03:32;;;;;;;1.77;1.48;;;;;;;21.08;46.20;101621.66;5060821;28;20557;-52
2022/05/10 09:06:27;;;;;;;1.40;1.30;;;;;;;21.06;46.15;101615.53;5070899;28;20032;-53
2022/05/10 09:08:57;;;;;;;1.60;1.35;;;;;;;21.04;46.25;101615.72;5071756;28;20028;-47
2022/05/10 09:11:24;;;;;;;1.67;1.38;;;;;;;21.05;46.18;101608.44;5072199;28;20115;-50
2022/05/10 09:13:49;;;;;;;1.50;1.40;;;;;;;21.04;46.03;101610.31;5074701;28;20032;-52
2022/05/10 09:16:15;;;;;;;2.00;1.50;;;;;;;21.05;46.24;101603.03;5075616;28;20028;-48
2022/05/10 09:18:46;;;;;;;1.67;1.40;;;;;;;21.07;46.32;101596.47;5069729;28;20178;-49
2022/05/10 09:21:34;;;;;;;1.90;1.58;;;;;;;21.06;46.11;101588.50;5077667;28;20039;-49
2022/05/10 09:24:13;;;;;;;1.85;1.50;;;;;;;21.09;46.27;101585.47;5066746;28;20034;-52
2022/05/10 09:26:43;;;;;;;1.75;1.50;;;;;;;21.09;46.27;101580.91;5069916;28;20051;-49
2022/05/10 09:29:13;;;;;;;1.77;1.30;;;;;;;21.10;46.28;101579.03;5073188;28;20032;-51
2022/05/10 09:37:26;;;;;;;1.75;1.30;;;;;;;21.13;46.26;101579.56;5078540;28;20080;-53
2022/05/10 09:39:57;;;;;;;1.58;1.23;;;;;;;21.14;46.48;101583.13;5076624;28;20034;-51
2022/05/10 09:43:10;;;;;;;1.85;1.25;;;;;;;21.14;46.13;101575.00;5071586;28;20063;-51
2022/05/10 09:45:36;;;;;;;2.00;1.48;;;;;;;21.14;46.21;101572.28;5040986;28;20923;-52
2022/05/10 09:48:08;;;;;;;1.88;1.45;;;;;;;21.16;46.05;101573.84;5073478;28;20068;-53
2022/05/10 09:50:36;;;;;;;1.70;1.40;;;;;;;21.17;46.26;101571.97;5075470;28;20062;-53
2022/05/10 09:53:26;;;;;;;1.63;1.50;;;;;;;21.19;46.08;101557.25;5072268;28;20032;-53
2022/05/10 09:56:04;;;;;;;1.80;1.30;;;;;;;21.21;46.24;101562.50;5074274;28;20025;-55
2022/05/10 09:58:34;;;;;;;1.90;1.48;;;;;;;21.21;46.32;101562.50;5070440;28;20143;-52
2022/05/10 10:01:02;;;;;;;1.77;1.42;;;;;;;21.22;45.84;101556.06;5060694;28;20079;-53
2022/05/10 10:03:31;;;;;;;1.75;1.40;;;;;;;21.24;46.03;101559.47;5072305;28;20088;-53
2022/05/10 10:06:15;;;;;;;1.48;1.20;;;;;;;21.23;46.30;101555.06;5079122;28;20060;-56
2022/05/10 10:08:43;;;;;;;2.92;1.48;;;;;;;21.26;46.26;101572.81;5071634;28;20024;-51
2022/05/10 10:11:28;;;;;;;1.13;1.03;;;;;;;21.27;46.02;101567.22;5076758;28;20020;-55
2022/05/10 10:13:58;;;;;;;1.55;1.38;;;;;;;21.28;46.25;101557.25;5077907;28;20324;-55
2022/05/10 10:16:26;;;;;;;2.22;1.30;;;;;;;21.28;46.28;101552.72;5073784;28;20024;-54
2022/05/10 10:18:59;;;;;;;1.40;1.20;;;;;;;21.29;46.28;101551.69;5068576;28;20029;-53
2022/05/10 10:21:27;;;;;;;1.60;1.42;;;;;;;21.29;46.32;101546.28;5072466;28;20051;-47
2022/05/10 10:23:59;;;;;;;2.17;1.80;;;;;;;21.31;45.97;101546.09;5073903;28;20052;-48
2022/05/10 10:26:37;;;;;;;1.95;1.15;;;;;;;21.31;46.04;101546.94;5064790;28;20520;-50
2022/05/10 10:29:23;;;;;;;1.77;1.30;;;;;;;21.33;46.00;101553.09;5072168;28;20372;-45
2022/05/10 10:31:54;;;;;;;2.10;1.55;;;;;;;21.33;46.00;101536.84;5069946;28;20033;-47
2022/05/10 10:34:31;;;;;;;1.42;1.20;;;;;;;21.35;45.78;101539.38;5067768;28;20147;-48
2022/05/10 10:37:06;;;;;;;1.98;1.65;;;;;;;21.36;45.72;101535.66;5074712;28;20059;-46
2022/05/10 10:39:37;;;;;;;1.40;1.27;;;;;;;21.37;45.90;101534.66;5074026;28;20024;-46
2022/05/10 10:42:10;;;;;;;1.35;1.10;;;;;;;21.38;45.96;101539.03;5075830;28;20048;-45
2022/05/10 10:44:40;;;;;;;1.52;1.20;;;;;;;21.38;45.86;101539.03;5074813;28;20331;-46
2022/05/10 10:47:26;;;;;;;1.42;1.33;;;;;;;21.40;46.02;101539.72;5068883;28;20078;-45
2022/05/10 10:49:57;;;;;;;1.42;1.30;;;;;;;21.37;45.73;101529.25;5079384;28;20032;-47
2022/05/10 10:52:23;;;;;;;2.08;1.52;;;;;;;21.38;45.77;101534.47;5078644;28;20474;-45
2022/05/10 10:54:48;;;;;;;1.70;1.50;;;;;;;21.37;45.93;101531.97;5075036;28;20088;-52
2022/05/10 10:57:51;;;;;;;1.60;1.38;;;;;;;21.42;45.97;101533.13;5080751;28;20028;-54
2022/05/10 11:00:19;;;;;;;1.65;1.50;;;;;;;21.41;46.10;101530.59;5073284;28;20025;-51
2022/05/10 11:03:07;;;;;;;1.50;1.27;;;;;;;21.42;46.00;101535.84;5078685;28;20066;-52
2022/05/10 11:05:58;;;;;;;1.98;1.63;;;;;;;21.41;45.75;101519.78;5082292;28;20443;-49
2022/05/10 11:08:23;;;;;;;2.17;1.70;;;;;;;21.42;45.97;101529.56;5062869;28;20024;-51
2022/05/10 11:10:56;;;;;;;1.45;1.27;;;;;;;21.44;46.11;101532.94;5080352;28;20048;-52
2022/05/10 11:13:40;;;;;;;1.50;1.33;;;;;;;21.45;45.80;101527.38;5074783;28;20522;-53
2022/05/10 11:16:24;;;;;;;1.65;1.40;;;;;;;21.45;45.73;101524.69;5077778;28;20028;-52
2022/05/10 11:19:14;;;;;;;1.50;1.30;;;;;;;21.48;45.54;101522.63;5067509;28;20036;-51
2022/05/10 11:22:21;;;;;;;3.83;1.55;;;;;;;21.48;45.73;101515.34;5074233;28;20021;-53
2022/05/10 11:25:32;;;;;;;2.08;1.65;;;;;;;21.48;45.86;101500.97;5079699;28;20028;-50
2022/05/10 11:28:17;;;;;;;1.45;1.30;;;;;;;21.48;45.99;101512.66;5031523;28;20030;-49
2022/05/10 11:30:56;;;;;;;2.10;1.77;;;;;;;21.47;45.70;101505.56;5036885;28;20706;-55
2022/05/10 11:33:43;;;;;;;1.73;1.50;;;;;;;21.48;46.05;101507.25;5032240;28;20040;-51
2022/05/10 11:36:27;;;;;;;1.73;1.52;;;;;;;21.45;45.88;101503.03;5029611;28;20046;-53
2022/05/10 11:39:26;;;;;;;2.17;1.70;;;;;;;21.48;45.84;101504.53;5042643;28;20040;-51
2022/05/10 11:42:06;;;;;;;2.83;1.55;;;;;;;21.47;46.07;101497.44;5026097;28;20098;-51
2022/05/10 11:44:40;;;;;;;1.65;1.55;;;;;;;21.49;46.18;101494.56;5022378;28;20037;-52
2022/05/10 11:47:29;;;;;;;1.70;1.40;;;;;;;21.50;46.08;101490.84;5021993;28;20038;-49
2022/05/10 11:50:17;;;;;;;1.70;1.58;;;;;;;21.49;45.75;101494.56;5006048;28;20219;-51